Time,TemperatureF,DewpointF,PressureIn,WindDirection,WindDirectionDegrees,WindSpeedMPH,WindSpeedGustMPH,Humidity,HourlyPrecipIn,Conditions,Clouds,dailyrainin,SolarRadiationWatts/m^2,SoftwareType,DateUTC
2013-03-20 00:22:00,56.0,42.0,30.16,East,96,4.0,5.0,59,-99.99,,,-99.99,0.000000,,2013-03-20 07:22:00,
2013-03-20 00:32:00,56.0,42.0,30.16,East,96,4.0,5.0,59,-99.99,,,-99.99,0.000000,,2013-03-20 07:32:00,
2013-03-20 00:40:00,57.0,42.0,30.16,SW,234,2.0,3.0,57,-99.99,,,-99.99,0.000000,,2013-03-20 07:40:00,
2013-03-20 01:22:00,57.0,42.0,30.16,SW,234,2.0,3.0,57,-99.99,,,-99.99,0.000000,,2013-03-20 08:22:00,
2013-03-20 01:32:00,57.0,42.0,30.16,SW,234,2.0,3.0,57,-99.99,,,-99.99,0.000000,,2013-03-20 08:32:00,
2013-03-20 01:40:00,57.0,41.0,30.15,SE,133,2.0,4.0,55,-99.99,,,-99.99,0.000000,,2013-03-20 08:40:00,
2013-03-20 02:22:00,57.0,41.0,30.15,SE,133,2.0,4.0,55,-99.99,,,-99.99,0.000000,,2013-03-20 09:22:00,
2013-03-20 02:32:00,57.0,41.0,30.15,SE,133,2.0,4.0,55,-99.99,,,-99.99,0.000000,,2013-03-20 09:32:00,
2013-03-20 08:40:00,51.0,41.0,30.16,NNW,330,3.0,6.0,68,-99.99,,,-99.99,118.000000,,2013-03-20 15:40:00,
2013-03-20 09:23:00,51.0,41.0,30.16,NNW,330,3.0,6.0,68,-99.99,,,-99.99,118.000000,,2013-03-20 16:23:00,
2013-03-20 09:32:00,51.0,41.0,30.16,NNW,330,3.0,6.0,68,-99.99,,,-99.99,118.000000,,2013-03-20 16:32:00,
2013-03-20 09:40:00,52.0,43.0,30.17,West,275,2.0,3.0,70,-99.99,,,-99.99,276.000000,,2013-03-20 16:40:00,
2013-03-20 10:22:00,52.0,43.0,30.17,West,275,2.0,3.0,70,-99.99,,,-99.99,276.000000,,2013-03-20 17:22:00,
2013-03-20 10:32:00,52.0,43.0,30.17,West,275,2.0,3.0,70,-99.99,,,-99.99,276.000000,,2013-03-20 17:32:00,
2013-03-20 10:40:00,56.0,40.0,30.16,West,278,4.0,6.0,56,-99.99,,,-99.99,391.000000,,2013-03-20 17:40:00,
2013-03-20 11:22:00,56.0,40.0,30.16,West,278,4.0,6.0,56,-99.99,,,-99.99,391.000000,,2013-03-20 18:22:00,
2013-03-20 11:33:00,56.0,40.0,30.16,West,278,4.0,6.0,56,-99.99,,,-99.99,391.000000,,2013-03-20 18:33:00,
2013-03-20 11:40:00,59.0,39.0,30.16,WNW,284,3.0,6.0,47,-99.99,,,-99.99,749.000000,,2013-03-20 18:40:00,
2013-03-20 12:22:00,59.0,39.0,30.16,WNW,284,3.0,6.0,47,-99.99,,,-99.99,749.000000,,2013-03-20 19:22:00,
2013-03-20 12:32:00,59.0,39.0,30.16,WNW,284,3.0,6.0,47,-99.99,,,-99.99,749.000000,,2013-03-20 19:32:00,
2013-03-20 12:40:00,56.0,40.0,30.17,West,261,2.0,5.0,55,-99.99,,,-99.99,171.000000,,2013-03-20 19:40:00,
2013-03-20 13:22:00,56.0,40.0,30.17,West,261,2.0,5.0,55,-99.99,,,-99.99,171.000000,,2013-03-20 20:22:00,
2013-03-20 13:32:00,56.0,40.0,30.17,West,261,2.0,5.0,55,-99.99,,,-99.99,171.000000,,2013-03-20 20:32:00,
2013-03-20 13:40:00,55.0,39.0,30.16,East,82,1.0,2.0,55,-99.99,,,-99.99,526.000000,,2013-03-20 20:40:00,
2013-03-20 14:22:00,55.0,39.0,30.16,East,82,1.0,2.0,55,-99.99,,,-99.99,526.000000,,2013-03-20 21:22:00,
2013-03-20 14:33:00,55.0,39.0,30.16,East,82,1.0,2.0,55,-99.99,,,-99.99,526.000000,,2013-03-20 21:33:00,
2013-03-20 14:40:00,50.0,34.0,30.16,NE,55,4.0,8.0,53,-99.99,,,-99.99,168.000000,,2013-03-20 21:40:00,
2013-03-20 15:23:00,50.0,34.0,30.16,NE,55,4.0,8.0,53,-99.99,,,-99.99,168.000000,,2013-03-20 22:23:00,
2013-03-20 15:32:00,50.0,34.0,30.16,NE,55,4.0,8.0,53,-99.99,,,-99.99,168.000000,,2013-03-20 22:32:00,
2013-03-20 15:40:00,54.0,37.0,30.14,NNE,25,5.0,6.0,53,-99.99,,,-99.99,176.000000,,2013-03-20 22:40:00,
2013-03-20 16:22:00,54.0,37.0,30.14,NNE,25,5.0,6.0,53,-99.99,,,-99.99,176.000000,,2013-03-20 23:22:00,
2013-03-20 16:32:00,54.0,37.0,30.14,NNE,25,5.0,6.0,53,-99.99,,,-99.99,176.000000,,2013-03-20 23:32:00,
2013-03-20 16:40:00,53.0,37.0,30.14,West,277,11.0,15.0,54,-99.99,,,-99.99,121.000000,,2013-03-20 23:40:00,
2013-03-20 17:22:00,53.0,37.0,30.14,West,277,11.0,15.0,54,-99.99,,,-99.99,121.000000,,2013-03-21 00:22:00,
2013-03-20 17:32:00,53.0,37.0,30.14,West,277,11.0,15.0,54,-99.99,,,-99.99,121.000000,,2013-03-21 00:32:00,
2013-03-20 17:40:00,52.0,38.0,30.14,NNW,338,4.0,6.0,57,-99.99,,,-99.99,141.000000,,2013-03-21 00:40:00,
2013-03-20 18:22:00,52.0,38.0,30.14,NNW,338,4.0,6.0,57,-99.99,,,-99.99,141.000000,,2013-03-21 01:22:00,
2013-03-20 18:32:00,52.0,38.0,30.14,NNW,338,4.0,6.0,57,-99.99,,,-99.99,141.000000,,2013-03-21 01:32:00,
2013-03-20 18:40:00,51.0,40.0,30.13,WNW,300,4.0,6.0,65,-99.99,,,-99.99,38.000000,,2013-03-21 01:40:00,
2013-03-20 19:22:00,51.0,40.0,30.13,WNW,300,4.0,6.0,65,-99.99,,,-99.99,38.000000,,2013-03-21 02:22:00,
2013-03-20 19:32:00,51.0,40.0,30.13,WNW,300,4.0,6.0,65,-99.99,,,-99.99,38.000000,,2013-03-21 02:32:00,
2013-03-20 19:40:00,51.0,44.0,30.13,NW,322,4.0,6.0,75,-99.99,,,-99.99,0.000000,,2013-03-21 02:40:00,
2013-03-20 20:22:00,51.0,44.0,30.13,NW,322,4.0,6.0,75,-99.99,,,-99.99,0.000000,,2013-03-21 03:22:00,
2013-03-20 20:32:00,51.0,44.0,30.13,NW,322,4.0,6.0,75,-99.99,,,-99.99,0.000000,,2013-03-21 03:32:00,
2013-03-20 20:40:00,53.0,45.0,30.13,NNE,15,4.0,6.0,76,-99.99,,,-99.99,0.000000,,2013-03-21 03:40:00,
2013-03-20 21:22:00,53.0,45.0,30.13,NNE,15,4.0,6.0,76,-99.99,,,-99.99,0.000000,,2013-03-21 04:22:00,
2013-03-20 21:32:00,53.0,45.0,30.13,NNE,15,4.0,6.0,76,-99.99,,,-99.99,0.000000,,2013-03-21 04:32:00,
2013-03-20 21:40:00,51.0,46.0,30.13,NNE,25,4.0,6.0,83,-99.99,,,-99.99,0.000000,,2013-03-21 04:40:00,
2013-03-20 22:22:00,51.0,46.0,30.13,NNE,25,4.0,6.0,83,-99.99,,,-99.99,0.000000,,2013-03-21 05:22:00,
2013-03-20 22:32:00,51.0,46.0,30.13,NNE,25,4.0,6.0,83,-99.99,,,-99.99,0.000000,,2013-03-21 05:32:00,
2013-03-20 22:40:00,50.0,46.0,30.14,NW,324,6.0,7.0,87,-99.99,,,-99.99,0.000000,,2013-03-21 05:40:00,
2013-03-20 23:22:00,50.0,46.0,30.14,NW,324,6.0,7.0,87,-99.99,,,-99.99,0.000000,,2013-03-21 06:22:00,
2013-03-20 23:32:00,50.0,46.0,30.14,NW,324,6.0,7.0,87,-99.99,,,-99.99,0.000000,,2013-03-21 06:32:00,
2013-03-20 23:40:00,50.0,46.0,30.13,NW,313,5.0,7.0,83,-99.99,,,-99.99,0.000000,,2013-03-21 06:40:00,